sensor_id;sensor_type;location;lat;lon;timestamp;temperature;humidity
13245;DHT22;6689;53.400;12.486;2023-04-06T00:01:11;5.80;85.10
13245;DHT22;6689;53.400;12.486;2023-04-06T00:03:38;5.80;84.80
13245;DHT22;6689;53.400;12.486;2023-04-06T00:06:08;5.80;79.40
13245;DHT22;6689;53.400;12.486;2023-04-06T00:08:36;5.70;85.10
13245;DHT22;6689;53.400;12.486;2023-04-06T00:11:03;5.70;80.70
13245;DHT22;6689;53.400;12.486;2023-04-06T00:13:32;5.60;85.80
13245;DHT22;6689;53.400;12.486;2023-04-06T00:16:00;5.50;85.60
13245;DHT22;6689;53.400;12.486;2023-04-06T00:18:27;5.60;72.00
13245;DHT22;6689;53.400;12.486;2023-04-06T00:20:54;5.60;92.70
13245;DHT22;6689;53.400;12.486;2023-04-06T00:23:24;5.60;81.90
13245;DHT22;6689;53.400;12.486;2023-04-06T00:25:51;5.50;82.40
13245;DHT22;6689;53.400;12.486;2023-04-06T00:28:18;5.40;85.00
13245;DHT22;6689;53.400;12.486;2023-04-06T00:30:51;5.40;83.50
13245;DHT22;6689;53.400;12.486;2023-04-06T00:33:21;5.40;86.40
13245;DHT22;6689;53.400;12.486;2023-04-06T00:35:48;5.30;82.10
13245;DHT22;6689;53.400;12.486;2023-04-06T00:38:15;5.40;85.70
13245;DHT22;6689;53.400;12.486;2023-04-06T00:40:44;5.30;86.50
13245;DHT22;6689;53.400;12.486;2023-04-06T00:43:12;5.30;94.50
13245;DHT22;6689;53.400;12.486;2023-04-06T00:45:41;5.30;83.50
13245;DHT22;6689;53.400;12.486;2023-04-06T00:48:10;5.20;85.30
13245;DHT22;6689;53.400;12.486;2023-04-06T00:50:37;5.10;88.80
13245;DHT22;6689;53.400;12.486;2023-04-06T00:53:05;5.10;96.80
13245;DHT22;6689;53.400;12.486;2023-04-06T00:55:35;5.10;89.70
13245;DHT22;6689;53.400;12.486;2023-04-06T00:58:04;5.00;99.90
13245;DHT22;6689;53.400;12.486;2023-04-06T01:00:32;5.00;96.00
13245;DHT22;6689;53.400;12.486;2023-04-06T01:02:59;5.00;99.90
13245;DHT22;6689;53.400;12.486;2023-04-06T01:05:27;4.90;90.10
13245;DHT22;6689;53.400;12.486;2023-04-06T01:07:55;4.90;97.80
13245;DHT22;6689;53.400;12.486;2023-04-06T01:10:24;4.90;99.90
13245;DHT22;6689;53.400;12.486;2023-04-06T01:12:52;4.80;95.30
13245;DHT22;6689;53.400;12.486;2023-04-06T01:15:21;4.80;90.40
13245;DHT22;6689;53.400;12.486;2023-04-06T01:17:50;4.80;92.20
13245;DHT22;6689;53.400;12.486;2023-04-06T01:20:18;4.70;87.70
13245;DHT22;6689;53.400;12.486;2023-04-06T01:22:47;4.70;90.90
13245;DHT22;6689;53.400;12.486;2023-04-06T01:25:14;4.60;95.90
13245;DHT22;6689;53.400;12.486;2023-04-06T01:27:42;4.50;99.90
13245;DHT22;6689;53.400;12.486;2023-04-06T01:30:10;4.50;99.90
13245;DHT22;6689;53.400;12.486;2023-04-06T01:32:37;4.50;99.90
13245;DHT22;6689;53.400;12.486;2023-04-06T01:35:05;4.50;99.90
13245;DHT22;6689;53.400;12.486;2023-04-06T01:37:33;4.50;98.90
13245;DHT22;6689;53.400;12.486;2023-04-06T01:40:02;4.40;99.20
13245;DHT22;6689;53.400;12.486;2023-04-06T01:42:33;4.40;95.60
13245;DHT22;6689;53.400;12.486;2023-04-06T01:45:01;4.30;87.30
13245;DHT22;6689;53.400;12.486;2023-04-06T01:47:28;4.20;91.30
13245;DHT22;6689;53.400;12.486;2023-04-06T01:49:55;4.30;96.60
13245;DHT22;6689;53.400;12.486;2023-04-06T01:52:22;4.20;97.00
13245;DHT22;6689;53.400;12.486;2023-04-06T01:54:50;4.10;93.50
13245;DHT22;6689;53.400;12.486;2023-04-06T01:57:20;4.00;99.90
13245;DHT22;6689;53.400;12.486;2023-04-06T01:59:48;4.00;99.90
13245;DHT22;6689;53.400;12.486;2023-04-06T02:02:15;4.00;97.80
13245;DHT22;6689;53.400;12.486;2023-04-06T02:04:43;4.00;98.30
13245;DHT22;6689;53.400;12.486;2023-04-06T02:07:10;4.00;96.80
13245;DHT22;6689;53.400;12.486;2023-04-06T02:09:37;3.90;93.40
13245;DHT22;6689;53.400;12.486;2023-04-06T02:12:05;3.90;99.90
13245;DHT22;6689;53.400;12.486;2023-04-06T02:14:34;3.90;99.90
13245;DHT22;6689;53.400;12.486;2023-04-06T02:17:02;3.80;99.90
13245;DHT22;6689;53.400;12.486;2023-04-06T02:19:29;3.80;99.90
13245;DHT22;6689;53.400;12.486;2023-04-06T02:21:56;3.70;99.90
13245;DHT22;6689;53.400;12.486;2023-04-06T02:24:24;3.70;99.90
13245;DHT22;6689;53.400;12.486;2023-04-06T02:26:51;3.60;99.90
13245;DHT22;6689;53.400;12.486;2023-04-06T02:29:19;3.70;99.90
13245;DHT22;6689;53.400;12.486;2023-04-06T02:31:48;3.60;99.90
13245;DHT22;6689;53.400;12.486;2023-04-06T02:34:16;3.60;99.90
13245;DHT22;6689;53.400;12.486;2023-04-06T02:36:46;3.60;99.90
13245;DHT22;6689;53.400;12.486;2023-04-06T02:39:14;3.50;99.90
13245;DHT22;6689;53.400;12.486;2023-04-06T02:41:42;3.50;99.90
13245;DHT22;6689;53.400;12.486;2023-04-06T02:44:09;3.50;99.90
13245;DHT22;6689;53.400;12.486;2023-04-06T02:46:37;3.50;99.90
13245;DHT22;6689;53.400;12.486;2023-04-06T02:49:06;3.40;99.90
13245;DHT22;6689;53.400;12.486;2023-04-06T02:51:36;3.40;99.90
13245;DHT22;6689;53.400;12.486;2023-04-06T02:54:03;3.40;99.90
13245;DHT22;6689;53.400;12.486;2023-04-06T02:56:33;3.30;99.90
13245;DHT22;6689;53.400;12.486;2023-04-06T02:59:00;3.30;99.90
13245;DHT22;6689;53.400;12.486;2023-04-06T03:01:28;3.30;99.90
13245;DHT22;6689;53.400;12.486;2023-04-06T03:03:56;3.30;99.90
13245;DHT22;6689;53.400;12.486;2023-04-06T03:06:25;3.30;99.90
13245;DHT22;6689;53.400;12.486;2023-04-06T03:08:52;3.30;99.90
13245;DHT22;6689;53.400;12.486;2023-04-06T03:11:20;3.20;99.90
13245;DHT22;6689;53.400;12.486;2023-04-06T03:13:48;3.10;99.90
13245;DHT22;6689;53.400;12.486;2023-04-06T03:16:16;3.10;99.90
13245;DHT22;6689;53.400;12.486;2023-04-06T03:18:46;3.10;99.90
13245;DHT22;6689;53.400;12.486;2023-04-06T03:21:15;3.10;99.90
13245;DHT22;6689;53.400;12.486;2023-04-06T03:23:44;3.10;99.90
13245;DHT22;6689;53.400;12.486;2023-04-06T03:26:11;3.10;99.90
13245;DHT22;6689;53.400;12.486;2023-04-06T03:28:39;3.10;99.90
13245;DHT22;6689;53.400;12.486;2023-04-06T03:31:06;3.10;99.90
13245;DHT22;6689;53.400;12.486;2023-04-06T03:33:37;3.00;99.90
13245;DHT22;6689;53.400;12.486;2023-04-06T03:36:05;3.00;99.90
13245;DHT22;6689;53.400;12.486;2023-04-06T03:38:35;3.00;99.90
13245;DHT22;6689;53.400;12.486;2023-04-06T03:41:03;3.00;99.90
13245;DHT22;6689;53.400;12.486;2023-04-06T03:43:31;3.00;99.90
13245;DHT22;6689;53.400;12.486;2023-04-06T03:45:59;3.00;99.90
13245;DHT22;6689;53.400;12.486;2023-04-06T03:48:26;2.90;99.90
13245;DHT22;6689;53.400;12.486;2023-04-06T03:50:54;2.90;99.90
13245;DHT22;6689;53.400;12.486;2023-04-06T03:53:21;2.90;99.90
13245;DHT22;6689;53.400;12.486;2023-04-06T03:55:49;2.90;99.90
13245;DHT22;6689;53.400;12.486;2023-04-06T03:58:19;2.80;99.90
13245;DHT22;6689;53.400;12.486;2023-04-06T04:00:46;2.80;99.90
13245;DHT22;6689;53.400;12.486;2023-04-06T04:03:16;2.80;99.90
13245;DHT22;6689;53.400;12.486;2023-04-06T04:05:44;2.70;99.90
13245;DHT22;6689;53.400;12.486;2023-04-06T04:08:11;2.60;99.90
13245;DHT22;6689;53.400;12.486;2023-04-06T04:10:38;2.50;99.90
13245;DHT22;6689;53.400;12.486;2023-04-06T04:13:05;2.50;99.90
13245;DHT22;6689;53.400;12.486;2023-04-06T04:15:34;2.50;99.90
13245;DHT22;6689;53.400;12.486;2023-04-06T04:18:03;2.50;99.90
13245;DHT22;6689;53.400;12.486;2023-04-06T04:20:30;2.40;99.90
13245;DHT22;6689;53.400;12.486;2023-04-06T04:22:57;2.40;99.90
13245;DHT22;6689;53.400;12.486;2023-04-06T04:25:25;2.40;99.90
13245;DHT22;6689;53.400;12.486;2023-04-06T04:27:52;2.40;99.90
13245;DHT22;6689;53.400;12.486;2023-04-06T04:30:19;2.30;99.90
13245;DHT22;6689;53.400;12.486;2023-04-06T04:32:50;2.30;99.90
13245;DHT22;6689;53.400;12.486;2023-04-06T04:35:18;2.30;99.90
13245;DHT22;6689;53.400;12.486;2023-04-06T04:37:48;2.30;99.90
13245;DHT22;6689;53.400;12.486;2023-04-06T04:40:16;2.40;99.90
13245;DHT22;6689;53.400;12.486;2023-04-06T04:42:46;2.40;99.90
13245;DHT22;6689;53.400;12.486;2023-04-06T04:45:14;2.40;99.90
13245;DHT22;6689;53.400;12.486;2023-04-06T04:47:42;2.40;99.90
13245;DHT22;6689;53.400;12.486;2023-04-06T04:50:11;2.40;99.90
13245;DHT22;6689;53.400;12.486;2023-04-06T04:52:38;2.40;99.90
13245;DHT22;6689;53.400;12.486;2023-04-06T04:55:06;2.40;99.90
13245;DHT22;6689;53.400;12.486;2023-04-06T04:57:33;2.40;99.90
13245;DHT22;6689;53.400;12.486;2023-04-06T05:00:03;2.40;99.90
13245;DHT22;6689;53.400;12.486;2023-04-06T05:02:31;2.40;99.90
13245;DHT22;6689;53.400;12.486;2023-04-06T05:05:01;2.40;99.90
13245;DHT22;6689;53.400;12.486;2023-04-06T05:07:30;2.40;99.90
13245;DHT22;6689;53.400;12.486;2023-04-06T05:09:58;2.40;99.90
13245;DHT22;6689;53.400;12.486;2023-04-06T05:12:27;2.50;99.90
13245;DHT22;6689;53.400;12.486;2023-04-06T05:14:55;2.40;99.90
13245;DHT22;6689;53.400;12.486;2023-04-06T05:17:23;2.40;99.90
13245;DHT22;6689;53.400;12.486;2023-04-06T05:19:51;2.50;99.90
13245;DHT22;6689;53.400;12.486;2023-04-06T05:22:18;2.50;99.90
13245;DHT22;6689;53.400;12.486;2023-04-06T05:24:47;2.50;99.90
13245;DHT22;6689;53.400;12.486;2023-04-06T05:30:37;2.50;99.90
13245;DHT22;6689;53.400;12.486;2023-04-06T05:33:04;2.50;99.90
13245;DHT22;6689;53.400;12.486;2023-04-06T05:35:33;2.60;99.90
13245;DHT22;6689;53.400;12.486;2023-04-06T05:38:00;2.60;99.90
13245;DHT22;6689;53.400;12.486;2023-04-06T05:40:29;2.70;99.90
13245;DHT22;6689;53.400;12.486;2023-04-06T05:42:58;2.80;99.90
13245;DHT22;6689;53.400;12.486;2023-04-06T05:45:26;2.80;99.90
13245;DHT22;6689;53.400;12.486;2023-04-06T05:47:54;2.90;99.90
13245;DHT22;6689;53.400;12.486;2023-04-06T05:50:23;3.10;99.90
13245;DHT22;6689;53.400;12.486;2023-04-06T05:52:50;3.30;99.90
13245;DHT22;6689;53.400;12.486;2023-04-06T05:55:18;3.40;99.90
13245;DHT22;6689;53.400;12.486;2023-04-06T05:57:47;3.60;96.60
13245;DHT22;6689;53.400;12.486;2023-04-06T06:00:14;3.70;99.90
13245;DHT22;6689;53.400;12.486;2023-04-06T06:02:42;3.80;99.90
13245;DHT22;6689;53.400;12.486;2023-04-06T06:05:09;4.00;99.90
13245;DHT22;6689;53.400;12.486;2023-04-06T06:07:37;4.20;83.00
13245;DHT22;6689;53.400;12.486;2023-04-06T06:10:08;4.40;75.70
13245;DHT22;6689;53.400;12.486;2023-04-06T06:12:36;4.50;80.50
13245;DHT22;6689;53.400;12.486;2023-04-06T06:15:08;4.40;67.60
13245;DHT22;6689;53.400;12.486;2023-04-06T06:17:35;4.50;71.40
13245;DHT22;6689;53.400;12.486;2023-04-06T06:20:04;4.70;62.60
13245;DHT22;6689;53.400;12.486;2023-04-06T06:22:32;4.80;70.80
13245;DHT22;6689;53.400;12.486;2023-04-06T06:24:59;4.90;67.10
13245;DHT22;6689;53.400;12.486;2023-04-06T06:27:27;4.90;51.00
13245;DHT22;6689;53.400;12.486;2023-04-06T06:29:54;5.00;57.60
13245;DHT22;6689;53.400;12.486;2023-04-06T06:32:23;5.10;51.70
13245;DHT22;6689;53.400;12.486;2023-04-06T06:34:51;5.20;54.20
13245;DHT22;6689;53.400;12.486;2023-04-06T06:37:19;5.40;48.10
13245;DHT22;6689;53.400;12.486;2023-04-06T06:39:46;5.50;41.50
13245;DHT22;6689;53.400;12.486;2023-04-06T06:42:17;5.80;44.10
13245;DHT22;6689;53.400;12.486;2023-04-06T06:44:45;6.20;44.20
13245;DHT22;6689;53.400;12.486;2023-04-06T06:47:12;6.70;50.10
13245;DHT22;6689;53.400;12.486;2023-04-06T06:49:41;7.30;32.60
13245;DHT22;6689;53.400;12.486;2023-04-06T06:52:10;7.90;18.50
13245;DHT22;6689;53.400;12.486;2023-04-06T06:54:40;8.40;7.00
13245;DHT22;6689;53.400;12.486;2023-04-06T06:57:07;9.10;5.10
13245;DHT22;6689;53.400;12.486;2023-04-06T06:59:35;9.80;1.00
13245;DHT22;6689;53.400;12.486;2023-04-06T07:02:02;10.60;1.00
13245;DHT22;6689;53.400;12.486;2023-04-06T07:04:29;11.40;1.00
13245;DHT22;6689;53.400;12.486;2023-04-06T07:06:58;12.30;1.00
13245;DHT22;6689;53.400;12.486;2023-04-06T07:09:27;13.30;1.00
13245;DHT22;6689;53.400;12.486;2023-04-06T07:11:54;14.50;1.00
13245;DHT22;6689;53.400;12.486;2023-04-06T07:14:22;15.60;1.00
13245;DHT22;6689;53.400;12.486;2023-04-06T07:16:50;17.00;1.00
13245;DHT22;6689;53.400;12.486;2023-04-06T07:19:17;18.30;1.00
13245;DHT22;6689;53.400;12.486;2023-04-06T07:21:45;19.50;1.00
13245;DHT22;6689;53.400;12.486;2023-04-06T07:24:16;20.70;1.00
13245;DHT22;6689;53.400;12.486;2023-04-06T07:26:43;21.40;1.00
13245;DHT22;6689;53.400;12.486;2023-04-06T07:29:11;22.20;1.00
13245;DHT22;6689;53.400;12.486;2023-04-06T07:31:38;22.70;1.00
13245;DHT22;6689;53.400;12.486;2023-04-06T07:34:06;23.10;99.90
13245;DHT22;6689;53.400;12.486;2023-04-06T07:36:33;23.60;99.90
13245;DHT22;6689;53.400;12.486;2023-04-06T07:39:03;24.40;99.90
13245;DHT22;6689;53.400;12.486;2023-04-06T07:41:32;24.70;99.90
13245;DHT22;6689;53.400;12.486;2023-04-06T07:44:00;25.10;99.90
13245;DHT22;6689;53.400;12.486;2023-04-06T07:46:27;25.30;99.90
13245;DHT22;6689;53.400;12.486;2023-04-06T07:48:56;25.60;99.90
13245;DHT22;6689;53.400;12.486;2023-04-06T07:51:23;26.00;99.90
13245;DHT22;6689;53.400;12.486;2023-04-06T07:53:51;26.60;99.90
13245;DHT22;6689;53.400;12.486;2023-04-06T07:56:31;27.10;99.90
13245;DHT22;6689;53.400;12.486;2023-04-06T07:59:02;26.90;99.90
13245;DHT22;6689;53.400;12.486;2023-04-06T08:01:29;26.90;99.90
13245;DHT22;6689;53.400;12.486;2023-04-06T08:03:57;27.10;99.90
13245;DHT22;6689;53.400;12.486;2023-04-06T08:06:26;26.50;99.90
13245;DHT22;6689;53.400;12.486;2023-04-06T08:08:54;26.00;99.90
13245;DHT22;6689;53.400;12.486;2023-04-06T08:11:22;26.10;99.90
13245;DHT22;6689;53.400;12.486;2023-04-06T08:13:50;26.20;99.90
13245;DHT22;6689;53.400;12.486;2023-04-06T08:16:18;25.90;99.90
13245;DHT22;6689;53.400;12.486;2023-04-06T08:18:46;25.10;99.90
13245;DHT22;6689;53.400;12.486;2023-04-06T08:21:16;23.60;99.90
13245;DHT22;6689;53.400;12.486;2023-04-06T08:23:44;22.10;99.90
13245;DHT22;6689;53.400;12.486;2023-04-06T08:26:11;20.50;99.90
13245;DHT22;6689;53.400;12.486;2023-04-06T08:28:39;19.70;99.90
13245;DHT22;6689;53.400;12.486;2023-04-06T08:31:07;18.90;99.90
13245;DHT22;6689;53.400;12.486;2023-04-06T08:33:35;18.00;99.90
13245;DHT22;6689;53.400;12.486;2023-04-06T08:36:08;17.40;99.90
13245;DHT22;6689;53.400;12.486;2023-04-06T08:38:36;16.60;1.00
13245;DHT22;6689;53.400;12.486;2023-04-06T08:41:08;15.90;1.00
13245;DHT22;6689;53.400;12.486;2023-04-06T08:43:42;15.30;1.00
13245;DHT22;6689;53.400;12.486;2023-04-06T08:46:12;14.80;1.00
13245;DHT22;6689;53.400;12.486;2023-04-06T08:48:41;14.50;1.00
13245;DHT22;6689;53.400;12.486;2023-04-06T08:51:09;14.10;1.00
13245;DHT22;6689;53.400;12.486;2023-04-06T08:53:37;13.80;1.00
13245;DHT22;6689;53.400;12.486;2023-04-06T08:56:06;13.60;1.00
13245;DHT22;6689;53.400;12.486;2023-04-06T08:58:35;13.20;1.00
13245;DHT22;6689;53.400;12.486;2023-04-06T09:01:06;13.10;1.00
13245;DHT22;6689;53.400;12.486;2023-04-06T09:03:40;13.20;1.00
13245;DHT22;6689;53.400;12.486;2023-04-06T09:06:08;13.20;1.00
13245;DHT22;6689;53.400;12.486;2023-04-06T09:08:39;12.60;1.00
13245;DHT22;6689;53.400;12.486;2023-04-06T09:11:07;12.90;1.00
13245;DHT22;6689;53.400;12.486;2023-04-06T09:13:45;13.00;1.00
13245;DHT22;6689;53.400;12.486;2023-04-06T09:16:16;12.80;1.00
13245;DHT22;6689;53.400;12.486;2023-04-06T09:18:45;12.70;1.00
13245;DHT22;6689;53.400;12.486;2023-04-06T09:21:16;12.80;1.00
13245;DHT22;6689;53.400;12.486;2023-04-06T09:23:43;12.90;1.00
13245;DHT22;6689;53.400;12.486;2023-04-06T09:26:13;13.00;1.00
13245;DHT22;6689;53.400;12.486;2023-04-06T09:28:44;13.00;1.00
13245;DHT22;6689;53.400;12.486;2023-04-06T09:31:14;13.10;1.00
13245;DHT22;6689;53.400;12.486;2023-04-06T09:33:46;13.10;1.00
13245;DHT22;6689;53.400;12.486;2023-04-06T09:36:14;13.00;1.00
13245;DHT22;6689;53.400;12.486;2023-04-06T09:38:52;13.10;1.00
13245;DHT22;6689;53.400;12.486;2023-04-06T09:41:24;13.10;1.00
13245;DHT22;6689;53.400;12.486;2023-04-06T09:43:52;13.20;1.00
13245;DHT22;6689;53.400;12.486;2023-04-06T09:46:32;13.30;1.00
13245;DHT22;6689;53.400;12.486;2023-04-06T09:49:02;13.20;1.00
13245;DHT22;6689;53.400;12.486;2023-04-06T09:51:31;13.30;1.00
13245;DHT22;6689;53.400;12.486;2023-04-06T09:53:59;13.50;1.00
13245;DHT22;6689;53.400;12.486;2023-04-06T09:56:31;13.40;1.00
13245;DHT22;6689;53.400;12.486;2023-04-06T09:59:02;13.30;1.00
13245;DHT22;6689;53.400;12.486;2023-04-06T10:01:33;13.20;1.00
13245;DHT22;6689;53.400;12.486;2023-04-06T10:04:17;13.50;1.00
13245;DHT22;6689;53.400;12.486;2023-04-06T10:06:46;13.60;1.00
13245;DHT22;6689;53.400;12.486;2023-04-06T10:09:18;13.70;1.00
13245;DHT22;6689;53.400;12.486;2023-04-06T10:11:50;13.80;1.00
13245;DHT22;6689;53.400;12.486;2023-04-06T10:14:18;13.90;1.00
13245;DHT22;6689;53.400;12.486;2023-04-06T10:16:48;13.90;1.00
13245;DHT22;6689;53.400;12.486;2023-04-06T10:19:24;13.90;1.00
13245;DHT22;6689;53.400;12.486;2023-04-06T10:21:55;13.80;1.00
13245;DHT22;6689;53.400;12.486;2023-04-06T10:24:25;14.00;1.00
13245;DHT22;6689;53.400;12.486;2023-04-06T10:26:57;14.10;1.00
13245;DHT22;6689;53.400;12.486;2023-04-06T10:29:26;14.20;1.00
13245;DHT22;6689;53.400;12.486;2023-04-06T10:31:54;14.10;1.00
13245;DHT22;6689;53.400;12.486;2023-04-06T10:34:34;14.10;1.00
13245;DHT22;6689;53.400;12.486;2023-04-06T10:37:12;14.20;1.00
13245;DHT22;6689;53.400;12.486;2023-04-06T10:39:46;14.40;1.00
13245;DHT22;6689;53.400;12.486;2023-04-06T10:42:14;14.30;1.00
13245;DHT22;6689;53.400;12.486;2023-04-06T10:44:49;14.40;1.00
13245;DHT22;6689;53.400;12.486;2023-04-06T10:47:18;14.30;1.00
13245;DHT22;6689;53.400;12.486;2023-04-06T10:49:46;14.40;1.00
13245;DHT22;6689;53.400;12.486;2023-04-06T10:52:14;14.50;1.00
13245;DHT22;6689;53.400;12.486;2023-04-06T10:54:42;14.50;1.00
13245;DHT22;6689;53.400;12.486;2023-04-06T10:57:10;14.50;1.00
13245;DHT22;6689;53.400;12.486;2023-04-06T10:59:42;14.50;1.00
13245;DHT22;6689;53.400;12.486;2023-04-06T11:02:19;14.50;1.00
13245;DHT22;6689;53.400;12.486;2023-04-06T11:05:06;14.70;1.00
13245;DHT22;6689;53.400;12.486;2023-04-06T11:07:33;14.70;1.00
13245;DHT22;6689;53.400;12.486;2023-04-06T11:10:02;14.60;1.00
13245;DHT22;6689;53.400;12.486;2023-04-06T11:12:29;14.80;1.00
13245;DHT22;6689;53.400;12.486;2023-04-06T11:14:57;15.00;1.00
13245;DHT22;6689;53.400;12.486;2023-04-06T11:17:30;15.10;1.00
13245;DHT22;6689;53.400;12.486;2023-04-06T11:19:59;15.00;1.00
13245;DHT22;6689;53.400;12.486;2023-04-06T11:22:27;15.10;1.00
13245;DHT22;6689;53.400;12.486;2023-04-06T11:25:04;15.10;1.00
13245;DHT22;6689;53.400;12.486;2023-04-06T11:27:34;15.30;1.00
13245;DHT22;6689;53.400;12.486;2023-04-06T11:30:03;15.30;1.00
13245;DHT22;6689;53.400;12.486;2023-04-06T11:32:39;15.30;1.00
13245;DHT22;6689;53.400;12.486;2023-04-06T11:35:11;15.50;1.00
13245;DHT22;6689;53.400;12.486;2023-04-06T11:37:39;15.60;1.00
13245;DHT22;6689;53.400;12.486;2023-04-06T11:40:09;15.50;99.90
13245;DHT22;6689;53.400;12.486;2023-04-06T11:42:36;15.60;99.90
13245;DHT22;6689;53.400;12.486;2023-04-06T11:45:06;14.00;99.90
13245;DHT22;6689;53.400;12.486;2023-04-06T11:47:35;15.10;1.00
13245;DHT22;6689;53.400;12.486;2023-04-06T11:50:07;15.10;99.90
13245;DHT22;6689;53.400;12.486;2023-04-06T11:52:36;15.30;99.90
13245;DHT22;6689;53.400;12.486;2023-04-06T11:55:11;15.20;99.90
13245;DHT22;6689;53.400;12.486;2023-04-06T11:57:40;15.20;99.90
13245;DHT22;6689;53.400;12.486;2023-04-06T12:00:09;15.20;99.90
13245;DHT22;6689;53.400;12.486;2023-04-06T12:02:37;15.40;99.90
13245;DHT22;6689;53.400;12.486;2023-04-06T12:05:06;15.50;99.90
13245;DHT22;6689;53.400;12.486;2023-04-06T12:07:36;15.50;99.90
13245;DHT22;6689;53.400;12.486;2023-04-06T12:10:04;15.60;1.00
13245;DHT22;6689;53.400;12.486;2023-04-06T12:12:31;14.80;99.90
13245;DHT22;6689;53.400;12.486;2023-04-06T12:14:59;15.40;1.00
13245;DHT22;6689;53.400;12.486;2023-04-06T12:17:26;15.50;99.90
13245;DHT22;6689;53.400;12.486;2023-04-06T12:19:58;15.40;99.90
13245;DHT22;6689;53.400;12.486;2023-04-06T12:22:26;15.60;1.00
13245;DHT22;6689;53.400;12.486;2023-04-06T12:24:56;15.30;99.90
13245;DHT22;6689;53.400;12.486;2023-04-06T12:27:23;15.70;1.00
13245;DHT22;6689;53.400;12.486;2023-04-06T12:29:51;15.90;1.00
13245;DHT22;6689;53.400;12.486;2023-04-06T12:32:19;15.80;1.00
13245;DHT22;6689;53.400;12.486;2023-04-06T12:34:47;15.90;99.90
13245;DHT22;6689;53.400;12.486;2023-04-06T12:37:14;15.70;99.90
13245;DHT22;6689;53.400;12.486;2023-04-06T12:39:43;15.80;1.00
13245;DHT22;6689;53.400;12.486;2023-04-06T12:42:13;15.80;99.90
13245;DHT22;6689;53.400;12.486;2023-04-06T12:44:40;16.00;99.90
13245;DHT22;6689;53.400;12.486;2023-04-06T12:47:09;16.00;99.90
13245;DHT22;6689;53.400;12.486;2023-04-06T12:49:36;15.70;99.90
13245;DHT22;6689;53.400;12.486;2023-04-06T12:52:06;16.10;99.90
13245;DHT22;6689;53.400;12.486;2023-04-06T12:54:34;16.00;99.90
13245;DHT22;6689;53.400;12.486;2023-04-06T12:57:02;16.10;99.90
13245;DHT22;6689;53.400;12.486;2023-04-06T12:59:32;16.00;99.90
13245;DHT22;6689;53.400;12.486;2023-04-06T13:02:01;15.60;99.90
13245;DHT22;6689;53.400;12.486;2023-04-06T13:04:29;15.90;99.90
13245;DHT22;6689;53.400;12.486;2023-04-06T13:06:56;15.80;99.90
13245;DHT22;6689;53.400;12.486;2023-04-06T13:09:23;15.90;99.90
13245;DHT22;6689;53.400;12.486;2023-04-06T13:11:51;16.00;99.90
13245;DHT22;6689;53.400;12.486;2023-04-06T13:14:18;15.80;99.90
13245;DHT22;6689;53.400;12.486;2023-04-06T13:16:49;15.80;99.90
13245;DHT22;6689;53.400;12.486;2023-04-06T13:19:16;15.80;99.90
13245;DHT22;6689;53.400;12.486;2023-04-06T13:21:44;16.00;99.90
13245;DHT22;6689;53.400;12.486;2023-04-06T13:24:12;15.90;99.90
13245;DHT22;6689;53.400;12.486;2023-04-06T13:26:39;15.60;1.00
13245;DHT22;6689;53.400;12.486;2023-04-06T13:29:09;15.60;1.40
13245;DHT22;6689;53.400;12.486;2023-04-06T13:31:36;15.70;1.00
13245;DHT22;6689;53.400;12.486;2023-04-06T13:34:06;15.70;1.00
13245;DHT22;6689;53.400;12.486;2023-04-06T13:36:34;15.80;99.90
13245;DHT22;6689;53.400;12.486;2023-04-06T13:39:01;15.80;99.90
13245;DHT22;6689;53.400;12.486;2023-04-06T13:41:29;15.80;99.90
13245;DHT22;6689;53.400;12.486;2023-04-06T13:43:56;15.50;99.90
13245;DHT22;6689;53.400;12.486;2023-04-06T13:46:25;15.60;99.90
13245;DHT22;6689;53.400;12.486;2023-04-06T13:48:53;15.60;99.90
13245;DHT22;6689;53.400;12.486;2023-04-06T13:51:23;15.60;1.00
13245;DHT22;6689;53.400;12.486;2023-04-06T13:53:50;15.70;99.90
13245;DHT22;6689;53.400;12.486;2023-04-06T13:56:19;15.70;99.90
13245;DHT22;6689;53.400;12.486;2023-04-06T13:58:46;15.70;1.00
13245;DHT22;6689;53.400;12.486;2023-04-06T14:01:14;15.50;1.00
13245;DHT22;6689;53.400;12.486;2023-04-06T14:03:41;15.60;1.40
13245;DHT22;6689;53.400;12.486;2023-04-06T14:06:11;15.10;99.90
13245;DHT22;6689;53.400;12.486;2023-04-06T14:08:41;15.20;99.90
13245;DHT22;6689;53.400;12.486;2023-04-06T14:11:11;15.20;99.90
13245;DHT22;6689;53.400;12.486;2023-04-06T14:13:39;14.90;99.90
13245;DHT22;6689;53.400;12.486;2023-04-06T14:16:07;15.10;99.90
13245;DHT22;6689;53.400;12.486;2023-04-06T14:18:36;15.10;1.00
13245;DHT22;6689;53.400;12.486;2023-04-06T14:21:04;15.10;1.00
13245;DHT22;6689;53.400;12.486;2023-04-06T14:23:31;15.00;99.90
13245;DHT22;6689;53.400;12.486;2023-04-06T14:26:05;15.10;1.00
13245;DHT22;6689;53.400;12.486;2023-04-06T14:28:33;15.10;1.00
13245;DHT22;6689;53.400;12.486;2023-04-06T14:31:00;15.10;1.00
13245;DHT22;6689;53.400;12.486;2023-04-06T14:33:30;15.10;1.00
13245;DHT22;6689;53.400;12.486;2023-04-06T14:35:57;14.70;99.90
13245;DHT22;6689;53.400;12.486;2023-04-06T14:38:24;14.70;1.00
13245;DHT22;6689;53.400;12.486;2023-04-06T14:40:52;14.80;99.90
13245;DHT22;6689;53.400;12.486;2023-04-06T14:43:22;14.80;1.00
13245;DHT22;6689;53.400;12.486;2023-04-06T14:45:51;14.60;1.00
13245;DHT22;6689;53.400;12.486;2023-04-06T14:48:19;14.60;1.00
13245;DHT22;6689;53.400;12.486;2023-04-06T14:50:52;14.70;1.00
13245;DHT22;6689;53.400;12.486;2023-04-06T14:53:21;14.00;99.90
13245;DHT22;6689;53.400;12.486;2023-04-06T14:55:48;13.80;99.90
13245;DHT22;6689;53.400;12.486;2023-04-06T14:58:17;14.20;1.00
13245;DHT22;6689;53.400;12.486;2023-04-06T15:00:49;14.40;1.00
13245;DHT22;6689;53.400;12.486;2023-04-06T15:03:21;14.40;1.00
13245;DHT22;6689;53.400;12.486;2023-04-06T15:05:51;14.50;1.00
13245;DHT22;6689;53.400;12.486;2023-04-06T15:08:18;14.30;1.00
13245;DHT22;6689;53.400;12.486;2023-04-06T15:10:46;14.50;1.00
13245;DHT22;6689;53.400;12.486;2023-04-06T15:13:14;14.50;1.00
13245;DHT22;6689;53.400;12.486;2023-04-06T15:15:42;14.50;1.00
13245;DHT22;6689;53.400;12.486;2023-04-06T15:18:11;14.60;1.00
13245;DHT22;6689;53.400;12.486;2023-04-06T15:20:39;14.60;1.00
13245;DHT22;6689;53.400;12.486;2023-04-06T15:23:06;14.50;1.00
13245;DHT22;6689;53.400;12.486;2023-04-06T15:25:34;14.40;1.00
13245;DHT22;6689;53.400;12.486;2023-04-06T15:28:01;14.40;1.00
13245;DHT22;6689;53.400;12.486;2023-04-06T15:30:29;14.50;1.00
13245;DHT22;6689;53.400;12.486;2023-04-06T15:32:58;14.50;1.00
13245;DHT22;6689;53.400;12.486;2023-04-06T15:35:28;14.50;1.00
13245;DHT22;6689;53.400;12.486;2023-04-06T15:37:55;14.50;1.00
13245;DHT22;6689;53.400;12.486;2023-04-06T15:40:23;14.30;1.00
13245;DHT22;6689;53.400;12.486;2023-04-06T15:42:50;14.30;1.00
13245;DHT22;6689;53.400;12.486;2023-04-06T15:45:18;14.40;1.00
13245;DHT22;6689;53.400;12.486;2023-04-06T15:47:45;14.20;1.00
13245;DHT22;6689;53.400;12.486;2023-04-06T15:50:13;14.20;1.00
13245;DHT22;6689;53.400;12.486;2023-04-06T15:52:43;14.00;1.00
13245;DHT22;6689;53.400;12.486;2023-04-06T15:55:10;14.20;1.00